sensor_id;sensor_type;location;lat;lon;timestamp;P1;durP1;ratioP1;P2;durP2;ratioP2
11006;SDS011;8186;57.652;11.968;2022-08-05T00:01:14;8.20;;;4.88;;
11006;SDS011;8186;57.652;11.968;2022-08-05T00:03:41;9.02;;;4.90;;
11006;SDS011;8186;57.652;11.968;2022-08-05T00:06:08;7.60;;;4.80;;
11006;SDS011;8186;57.652;11.968;2022-08-05T00:08:36;10.55;;;5.10;;
11006;SDS011;8186;57.652;11.968;2022-08-05T00:11:04;6.82;;;4.13;;
11006;SDS011;8186;57.652;11.968;2022-08-05T00:13:32;5.65;;;4.20;;
11006;SDS011;8186;57.652;11.968;2022-08-05T00:15:59;4.28;;;3.90;;
11006;SDS011;8186;57.652;11.968;2022-08-05T00:18:28;7.07;;;4.82;;
11006;SDS011;8186;57.652;11.968;2022-08-05T00:20:54;5.30;;;4.00;;
11006;SDS011;8186;57.652;11.968;2022-08-05T00:23:22;6.07;;;4.07;;
11006;SDS011;8186;57.652;11.968;2022-08-05T00:25:49;4.57;;;3.77;;
11006;SDS011;8186;57.652;11.968;2022-08-05T00:28:16;5.70;;;3.97;;
11006;SDS011;8186;57.652;11.968;2022-08-05T00:30:43;12.90;;;4.30;;
11006;SDS011;8186;57.652;11.968;2022-08-05T00:33:10;8.87;;;3.90;;
11006;SDS011;8186;57.652;11.968;2022-08-05T00:35:38;6.70;;;4.00;;
11006;SDS011;8186;57.652;11.968;2022-08-05T00:38:05;8.70;;;4.27;;
11006;SDS011;8186;57.652;11.968;2022-08-05T00:40:32;5.53;;;3.33;;
11006;SDS011;8186;57.652;11.968;2022-08-05T00:42:59;5.27;;;3.37;;
11006;SDS011;8186;57.652;11.968;2022-08-05T00:45:27;8.10;;;3.80;;
11006;SDS011;8186;57.652;11.968;2022-08-05T00:47:54;8.37;;;3.60;;
11006;SDS011;8186;57.652;11.968;2022-08-05T00:50:21;6.17;;;3.07;;
11006;SDS011;8186;57.652;11.968;2022-08-05T00:52:49;9.20;;;3.07;;
11006;SDS011;8186;57.652;11.968;2022-08-05T00:55:16;6.23;;;2.57;;
11006;SDS011;8186;57.652;11.968;2022-08-05T00:57:43;4.07;;;2.40;;
11006;SDS011;8186;57.652;11.968;2022-08-05T01:00:10;5.83;;;2.90;;
11006;SDS011;8186;57.652;11.968;2022-08-05T01:02:38;6.13;;;2.87;;
11006;SDS011;8186;57.652;11.968;2022-08-05T01:05:05;6.57;;;2.93;;
11006;SDS011;8186;57.652;11.968;2022-08-05T01:07:32;5.10;;;2.70;;
11006;SDS011;8186;57.652;11.968;2022-08-05T01:10:00;5.73;;;2.70;;
11006;SDS011;8186;57.652;11.968;2022-08-05T01:12:27;3.53;;;2.73;;
11006;SDS011;8186;57.652;11.968;2022-08-05T01:14:55;9.27;;;2.40;;
11006;SDS011;8186;57.652;11.968;2022-08-05T01:17:26;5.20;;;2.60;;
11006;SDS011;8186;57.652;11.968;2022-08-05T01:19:59;9.27;;;2.70;;
11006;SDS011;8186;57.652;11.968;2022-08-05T01:22:34;7.03;;;2.27;;
11006;SDS011;8186;57.652;11.968;2022-08-05T01:25:21;5.47;;;2.70;;
11006;SDS011;8186;57.652;11.968;2022-08-05T01:30:43;10.97;;;2.30;;
11006;SDS011;8186;57.652;11.968;2022-08-05T01:33:13;4.07;;;1.97;;
11006;SDS011;8186;57.652;11.968;2022-08-05T01:35:40;10.77;;;2.40;;
11006;SDS011;8186;57.652;11.968;2022-08-05T01:38:09;7.30;;;2.23;;
11006;SDS011;8186;57.652;11.968;2022-08-05T01:40:37;3.50;;;2.00;;
11006;SDS011;8186;57.652;11.968;2022-08-05T01:43:05;8.67;;;2.57;;
11006;SDS011;8186;57.652;11.968;2022-08-05T01:45:34;5.37;;;2.30;;
11006;SDS011;8186;57.652;11.968;2022-08-05T01:48:01;7.53;;;2.73;;
11006;SDS011;8186;57.652;11.968;2022-08-05T01:50:30;7.93;;;2.20;;
11006;SDS011;8186;57.652;11.968;2022-08-05T01:53:05;9.17;;;2.10;;
11006;SDS011;8186;57.652;11.968;2022-08-05T01:55:33;3.83;;;1.60;;
11006;SDS011;8186;57.652;11.968;2022-08-05T01:58:00;6.17;;;2.60;;
11006;SDS011;8186;57.652;11.968;2022-08-05T02:00:29;7.07;;;2.20;;
11006;SDS011;8186;57.652;11.968;2022-08-05T02:02:59;7.53;;;2.27;;
11006;SDS011;8186;57.652;11.968;2022-08-05T02:05:30;5.43;;;1.93;;
11006;SDS011;8186;57.652;11.968;2022-08-05T02:07:57;5.60;;;1.83;;
11006;SDS011;8186;57.652;11.968;2022-08-05T02:10:25;3.27;;;2.00;;
11006;SDS011;8186;57.652;11.968;2022-08-05T02:12:54;8.20;;;2.00;;
11006;SDS011;8186;57.652;11.968;2022-08-05T02:15:23;5.03;;;2.00;;
11006;SDS011;8186;57.652;11.968;2022-08-05T02:17:52;8.50;;;2.23;;
11006;SDS011;8186;57.652;11.968;2022-08-05T02:20:25;4.63;;;2.10;;
11006;SDS011;8186;57.652;11.968;2022-08-05T02:22:55;4.37;;;1.80;;
11006;SDS011;8186;57.652;11.968;2022-08-05T02:25:24;4.73;;;1.63;;
11006;SDS011;8186;57.652;11.968;2022-08-05T02:27:54;7.17;;;2.20;;
11006;SDS011;8186;57.652;11.968;2022-08-05T02:30:22;5.10;;;2.13;;
11006;SDS011;8186;57.652;11.968;2022-08-05T02:32:50;6.17;;;1.83;;
11006;SDS011;8186;57.652;11.968;2022-08-05T02:35:18;7.87;;;2.20;;
11006;SDS011;8186;57.652;11.968;2022-08-05T02:37:47;7.70;;;2.00;;
11006;SDS011;8186;57.652;11.968;2022-08-05T02:40:16;6.60;;;1.90;;
11006;SDS011;8186;57.652;11.968;2022-08-05T02:42:43;5.53;;;2.40;;
11006;SDS011;8186;57.652;11.968;2022-08-05T02:45:10;6.40;;;1.70;;
11006;SDS011;8186;57.652;11.968;2022-08-05T02:47:38;4.93;;;2.00;;
11006;SDS011;8186;57.652;11.968;2022-08-05T02:50:05;10.07;;;2.03;;
11006;SDS011;8186;57.652;11.968;2022-08-05T02:52:33;5.60;;;2.10;;
11006;SDS011;8186;57.652;11.968;2022-08-05T02:55:03;6.47;;;1.80;;
11006;SDS011;8186;57.652;11.968;2022-08-05T02:57:31;4.80;;;2.00;;
11006;SDS011;8186;57.652;11.968;2022-08-05T02:59:58;3.87;;;1.70;;
11006;SDS011;8186;57.652;11.968;2022-08-05T03:02:27;5.40;;;1.90;;
11006;SDS011;8186;57.652;11.968;2022-08-05T03:04:55;5.77;;;1.90;;
11006;SDS011;8186;57.652;11.968;2022-08-05T03:07:23;9.63;;;2.33;;
11006;SDS011;8186;57.652;11.968;2022-08-05T03:09:51;4.87;;;1.70;;
11006;SDS011;8186;57.652;11.968;2022-08-05T03:12:31;6.83;;;1.97;;
11006;SDS011;8186;57.652;11.968;2022-08-05T03:14:58;9.87;;;2.33;;
11006;SDS011;8186;57.652;11.968;2022-08-05T03:17:25;4.63;;;1.90;;
11006;SDS011;8186;57.652;11.968;2022-08-05T03:19:52;8.13;;;2.23;;
11006;SDS011;8186;57.652;11.968;2022-08-05T03:22:19;6.77;;;1.70;;
11006;SDS011;8186;57.652;11.968;2022-08-05T03:24:46;9.03;;;1.90;;
11006;SDS011;8186;57.652;11.968;2022-08-05T03:27:14;6.07;;;1.70;;
11006;SDS011;8186;57.652;11.968;2022-08-05T03:29:42;7.10;;;1.77;;
11006;SDS011;8186;57.652;11.968;2022-08-05T03:32:10;6.93;;;2.07;;
11006;SDS011;8186;57.652;11.968;2022-08-05T03:34:37;9.77;;;1.80;;
11006;SDS011;8186;57.652;11.968;2022-08-05T03:37:05;3.77;;;1.60;;
11006;SDS011;8186;57.652;11.968;2022-08-05T03:39:32;6.73;;;1.50;;
11006;SDS011;8186;57.652;11.968;2022-08-05T03:41:59;7.70;;;1.60;;
11006;SDS011;8186;57.652;11.968;2022-08-05T03:44:25;5.67;;;2.00;;
11006;SDS011;8186;57.652;11.968;2022-08-05T03:46:54;6.97;;;1.47;;
11006;SDS011;8186;57.652;11.968;2022-08-05T03:49:20;7.33;;;1.53;;
11006;SDS011;8186;57.652;11.968;2022-08-05T03:51:49;6.30;;;1.40;;
11006;SDS011;8186;57.652;11.968;2022-08-05T03:54:22;8.40;;;1.70;;
11006;SDS011;8186;57.652;11.968;2022-08-05T03:56:55;6.20;;;1.50;;
11006;SDS011;8186;57.652;11.968;2022-08-05T03:59:24;5.90;;;1.57;;
11006;SDS011;8186;57.652;11.968;2022-08-05T04:01:55;7.03;;;1.73;;
11006;SDS011;8186;57.652;11.968;2022-08-05T04:04:22;5.33;;;1.70;;
11006;SDS011;8186;57.652;11.968;2022-08-05T04:06:49;7.40;;;1.53;;
11006;SDS011;8186;57.652;11.968;2022-08-05T04:09:16;3.27;;;1.27;;
11006;SDS011;8186;57.652;11.968;2022-08-05T04:11:43;6.03;;;1.67;;
11006;SDS011;8186;57.652;11.968;2022-08-05T04:14:10;6.33;;;1.40;;
11006;SDS011;8186;57.652;11.968;2022-08-05T04:16:38;5.97;;;1.57;;
11006;SDS011;8186;57.652;11.968;2022-08-05T04:19:09;9.67;;;2.07;;
11006;SDS011;8186;57.652;11.968;2022-08-05T04:21:36;4.00;;;1.60;;
11006;SDS011;8186;57.652;11.968;2022-08-05T04:24:04;6.20;;;1.77;;
11006;SDS011;8186;57.652;11.968;2022-08-05T04:26:31;4.33;;;1.40;;
11006;SDS011;8186;57.652;11.968;2022-08-05T04:28:58;7.57;;;1.93;;
11006;SDS011;8186;57.652;11.968;2022-08-05T04:31:25;5.30;;;2.03;;
11006;SDS011;8186;57.652;11.968;2022-08-05T04:33:52;6.33;;;1.70;;
11006;SDS011;8186;57.652;11.968;2022-08-05T04:36:20;9.33;;;1.63;;
11006;SDS011;8186;57.652;11.968;2022-08-05T04:38:47;4.83;;;1.60;;
11006;SDS011;8186;57.652;11.968;2022-08-05T04:41:13;5.70;;;1.77;;
11006;SDS011;8186;57.652;11.968;2022-08-05T04:43:40;7.97;;;1.63;;
11006;SDS011;8186;57.652;11.968;2022-08-05T04:46:07;10.03;;;1.70;;
11006;SDS011;8186;57.652;11.968;2022-08-05T04:48:34;5.67;;;1.80;;
11006;SDS011;8186;57.652;11.968;2022-08-05T04:51:01;11.23;;;1.60;;
11006;SDS011;8186;57.652;11.968;2022-08-05T04:53:29;7.30;;;2.17;;
11006;SDS011;8186;57.652;11.968;2022-08-05T04:55:56;5.33;;;1.87;;
11006;SDS011;8186;57.652;11.968;2022-08-05T04:58:23;7.83;;;1.53;;
11006;SDS011;8186;57.652;11.968;2022-08-05T05:00:49;7.00;;;2.47;;
11006;SDS011;8186;57.652;11.968;2022-08-05T05:03:16;6.60;;;2.07;;
11006;SDS011;8186;57.652;11.968;2022-08-05T05:05:43;7.47;;;1.87;;
11006;SDS011;8186;57.652;11.968;2022-08-05T05:08:10;9.97;;;2.13;;
11006;SDS011;8186;57.652;11.968;2022-08-05T05:10:40;5.63;;;1.40;;
11006;SDS011;8186;57.652;11.968;2022-08-05T05:13:09;8.63;;;1.97;;
11006;SDS011;8186;57.652;11.968;2022-08-05T05:15:36;8.30;;;1.87;;
11006;SDS011;8186;57.652;11.968;2022-08-05T05:18:03;5.50;;;1.97;;
11006;SDS011;8186;57.652;11.968;2022-08-05T05:20:31;7.70;;;1.80;;
11006;SDS011;8186;57.652;11.968;2022-08-05T05:22:59;7.33;;;1.63;;
11006;SDS011;8186;57.652;11.968;2022-08-05T05:25:28;7.90;;;2.17;;
11006;SDS011;8186;57.652;11.968;2022-08-05T05:27:57;8.73;;;1.87;;
11006;SDS011;8186;57.652;11.968;2022-08-05T05:30:23;9.43;;;1.80;;
11006;SDS011;8186;57.652;11.968;2022-08-05T05:32:50;9.27;;;2.23;;
11006;SDS011;8186;57.652;11.968;2022-08-05T05:35:17;8.40;;;1.90;;
11006;SDS011;8186;57.652;11.968;2022-08-05T05:37:47;6.17;;;1.57;;
11006;SDS011;8186;57.652;11.968;2022-08-05T05:40:14;7.93;;;2.03;;
11006;SDS011;8186;57.652;11.968;2022-08-05T05:42:41;5.13;;;1.57;;
11006;SDS011;8186;57.652;11.968;2022-08-05T05:45:09;5.97;;;1.47;;
11006;SDS011;8186;57.652;11.968;2022-08-05T05:47:36;11.97;;;1.83;;
11006;SDS011;8186;57.652;11.968;2022-08-05T05:50:05;7.10;;;1.90;;
11006;SDS011;8186;57.652;11.968;2022-08-05T05:52:33;4.93;;;1.67;;
11006;SDS011;8186;57.652;11.968;2022-08-05T05:55:00;7.07;;;1.53;;
11006;SDS011;8186;57.652;11.968;2022-08-05T05:57:26;5.70;;;1.77;;
11006;SDS011;8186;57.652;11.968;2022-08-05T05:59:53;9.50;;;1.50;;
11006;SDS011;8186;57.652;11.968;2022-08-05T06:02:22;4.23;;;1.47;;
11006;SDS011;8186;57.652;11.968;2022-08-05T06:04:48;5.33;;;1.57;;
11006;SDS011;8186;57.652;11.968;2022-08-05T06:07:15;7.63;;;1.40;;
11006;SDS011;8186;57.652;11.968;2022-08-05T06:09:42;5.13;;;1.53;;
11006;SDS011;8186;57.652;11.968;2022-08-05T06:12:09;4.97;;;1.60;;
11006;SDS011;8186;57.652;11.968;2022-08-05T06:14:36;8.97;;;1.83;;
11006;SDS011;8186;57.652;11.968;2022-08-05T06:17:03;9.73;;;1.97;;
11006;SDS011;8186;57.652;11.968;2022-08-05T06:19:31;9.00;;;1.60;;
11006;SDS011;8186;57.652;11.968;2022-08-05T06:21:58;4.17;;;1.33;;
11006;SDS011;8186;57.652;11.968;2022-08-05T06:24:25;6.10;;;1.57;;
11006;SDS011;8186;57.652;11.968;2022-08-05T06:26:52;8.33;;;1.57;;
11006;SDS011;8186;57.652;11.968;2022-08-05T06:29:19;4.50;;;1.53;;
11006;SDS011;8186;57.652;11.968;2022-08-05T06:31:46;11.33;;;1.80;;
11006;SDS011;8186;57.652;11.968;2022-08-05T06:34:12;7.67;;;1.90;;
11006;SDS011;8186;57.652;11.968;2022-08-05T06:36:41;3.73;;;1.37;;
11006;SDS011;8186;57.652;11.968;2022-08-05T06:39:07;3.73;;;1.30;;
11006;SDS011;8186;57.652;11.968;2022-08-05T06:41:34;4.70;;;1.30;;
11006;SDS011;8186;57.652;11.968;2022-08-05T06:44:01;9.33;;;1.73;;
11006;SDS011;8186;57.652;11.968;2022-08-05T06:46:28;9.33;;;1.57;;
11006;SDS011;8186;57.652;11.968;2022-08-05T06:48:55;7.43;;;1.47;;
11006;SDS011;8186;57.652;11.968;2022-08-05T06:51:22;7.13;;;1.33;;
11006;SDS011;8186;57.652;11.968;2022-08-05T06:53:50;6.40;;;1.10;;
11006;SDS011;8186;57.652;11.968;2022-08-05T06:56:17;5.53;;;1.40;;
11006;SDS011;8186;57.652;11.968;2022-08-05T06:58:44;3.97;;;1.67;;
11006;SDS011;8186;57.652;11.968;2022-08-05T07:01:11;8.27;;;1.60;;
11006;SDS011;8186;57.652;11.968;2022-08-05T07:03:38;8.60;;;1.80;;
11006;SDS011;8186;57.652;11.968;2022-08-05T07:06:04;5.87;;;1.37;;
11006;SDS011;8186;57.652;11.968;2022-08-05T07:08:31;7.57;;;1.93;;
11006;SDS011;8186;57.652;11.968;2022-08-05T07:11:00;6.47;;;1.70;;
11006;SDS011;8186;57.652;11.968;2022-08-05T07:13:27;5.37;;;1.70;;
11006;SDS011;8186;57.652;11.968;2022-08-05T07:16:19;8.33;;;1.50;;
11006;SDS011;8186;57.652;11.968;2022-08-05T07:19:03;5.80;;;1.20;;
11006;SDS011;8186;57.652;11.968;2022-08-05T07:21:30;5.53;;;1.27;;
11006;SDS011;8186;57.652;11.968;2022-08-05T07:23:57;6.93;;;1.30;;
11006;SDS011;8186;57.652;11.968;2022-08-05T07:26:25;3.90;;;1.10;;
11006;SDS011;8186;57.652;11.968;2022-08-05T07:28:52;4.70;;;1.13;;
11006;SDS011;8186;57.652;11.968;2022-08-05T07:31:19;5.50;;;1.80;;
11006;SDS011;8186;57.652;11.968;2022-08-05T07:33:46;5.37;;;1.23;;
11006;SDS011;8186;57.652;11.968;2022-08-05T07:36:13;4.27;;;1.20;;
11006;SDS011;8186;57.652;11.968;2022-08-05T07:38:40;5.23;;;1.50;;
11006;SDS011;8186;57.652;11.968;2022-08-05T07:41:07;5.73;;;1.20;;
11006;SDS011;8186;57.652;11.968;2022-08-05T07:43:36;2.23;;;1.00;;
11006;SDS011;8186;57.652;11.968;2022-08-05T07:46:03;5.70;;;1.20;;
11006;SDS011;8186;57.652;11.968;2022-08-05T07:48:30;6.47;;;1.30;;
11006;SDS011;8186;57.652;11.968;2022-08-05T07:50:57;5.90;;;1.33;;
11006;SDS011;8186;57.652;11.968;2022-08-05T07:53:23;4.67;;;1.20;;
11006;SDS011;8186;57.652;11.968;2022-08-05T07:55:50;4.93;;;1.60;;
11006;SDS011;8186;57.652;11.968;2022-08-05T07:58:17;3.70;;;1.07;;
11006;SDS011;8186;57.652;11.968;2022-08-05T08:00:45;4.30;;;0.97;;
11006;SDS011;8186;57.652;11.968;2022-08-05T08:03:14;4.83;;;0.93;;
11006;SDS011;8186;57.652;11.968;2022-08-05T08:05:41;3.83;;;1.10;;
11006;SDS011;8186;57.652;11.968;2022-08-05T08:08:08;3.23;;;0.90;;
11006;SDS011;8186;57.652;11.968;2022-08-05T08:10:35;5.73;;;1.20;;
11006;SDS011;8186;57.652;11.968;2022-08-05T08:13:02;4.80;;;1.30;;
11006;SDS011;8186;57.652;11.968;2022-08-05T08:15:29;2.33;;;0.80;;
11006;SDS011;8186;57.652;11.968;2022-08-05T08:17:58;1.87;;;0.80;;
11006;SDS011;8186;57.652;11.968;2022-08-05T08:20:24;4.13;;;1.00;;
11006;SDS011;8186;57.652;11.968;2022-08-05T08:22:52;2.73;;;1.00;;
11006;SDS011;8186;57.652;11.968;2022-08-05T08:25:19;4.03;;;1.23;;
11006;SDS011;8186;57.652;11.968;2022-08-05T08:27:46;4.60;;;1.17;;
11006;SDS011;8186;57.652;11.968;2022-08-05T08:30:13;4.83;;;1.00;;
11006;SDS011;8186;57.652;11.968;2022-08-05T08:32:40;5.47;;;1.47;;
11006;SDS011;8186;57.652;11.968;2022-08-05T08:35:08;2.20;;;0.90;;
11006;SDS011;8186;57.652;11.968;2022-08-05T08:37:35;3.77;;;0.70;;
11006;SDS011;8186;57.652;11.968;2022-08-05T08:40:03;5.50;;;1.13;;
11006;SDS011;8186;57.652;11.968;2022-08-05T08:42:31;3.37;;;0.90;;
11006;SDS011;8186;57.652;11.968;2022-08-05T08:44:58;3.53;;;0.90;;
11006;SDS011;8186;57.652;11.968;2022-08-05T08:47:26;4.30;;;1.10;;
11006;SDS011;8186;57.652;11.968;2022-08-05T08:49:53;3.73;;;1.33;;
11006;SDS011;8186;57.652;11.968;2022-08-05T08:52:24;4.63;;;1.17;;
11006;SDS011;8186;57.652;11.968;2022-08-05T08:54:51;2.73;;;1.17;;
11006;SDS011;8186;57.652;11.968;2022-08-05T08:57:18;5.07;;;1.07;;
11006;SDS011;8186;57.652;11.968;2022-08-05T08:59:45;4.85;;;1.10;;
11006;SDS011;8186;57.652;11.968;2022-08-05T09:02:13;4.53;;;0.90;;
11006;SDS011;8186;57.652;11.968;2022-08-05T09:04:43;4.40;;;0.83;;
11006;SDS011;8186;57.652;11.968;2022-08-05T09:07:10;3.20;;;0.90;;
11006;SDS011;8186;57.652;11.968;2022-08-05T09:09:38;2.73;;;1.40;;
11006;SDS011;8186;57.652;11.968;2022-08-05T09:12:06;3.37;;;0.90;;
11006;SDS011;8186;57.652;11.968;2022-08-05T09:14:34;2.47;;;0.97;;
11006;SDS011;8186;57.652;11.968;2022-08-05T09:17:02;5.30;;;1.00;;
11006;SDS011;8186;57.652;11.968;2022-08-05T09:19:30;3.90;;;0.90;;
11006;SDS011;8186;57.652;11.968;2022-08-05T09:21:57;2.53;;;0.90;;
11006;SDS011;8186;57.652;11.968;2022-08-05T09:24:24;3.90;;;0.77;;
11006;SDS011;8186;57.652;11.968;2022-08-05T09:26:54;4.10;;;1.20;;
11006;SDS011;8186;57.652;11.968;2022-08-05T09:29:35;2.88;;;1.10;;
11006;SDS011;8186;57.652;11.968;2022-08-05T09:32:03;3.40;;;0.90;;
11006;SDS011;8186;57.652;11.968;2022-08-05T09:34:44;2.37;;;0.87;;
11006;SDS011;8186;57.652;11.968;2022-08-05T09:37:18;4.68;;;1.05;;
11006;SDS011;8186;57.652;11.968;2022-08-05T09:39:45;6.27;;;1.50;;
11006;SDS011;8186;57.652;11.968;2022-08-05T09:42:14;3.23;;;0.90;;
11006;SDS011;8186;57.652;11.968;2022-08-05T09:44:42;2.53;;;1.00;;
11006;SDS011;8186;57.652;11.968;2022-08-05T09:47:11;3.27;;;1.10;;
11006;SDS011;8186;57.652;11.968;2022-08-05T09:49:39;1.15;;;0.80;;
11006;SDS011;8186;57.652;11.968;2022-08-05T09:52:17;2.73;;;1.00;;
11006;SDS011;8186;57.652;11.968;2022-08-05T09:54:58;1.73;;;0.80;;
11006;SDS011;8186;57.652;11.968;2022-08-05T09:57:32;5.57;;;1.00;;
11006;SDS011;8186;57.652;11.968;2022-08-05T10:00:01;3.53;;;1.00;;
11006;SDS011;8186;57.652;11.968;2022-08-05T10:02:33;2.73;;;1.07;;
11006;SDS011;8186;57.652;11.968;2022-08-05T10:05:05;3.57;;;1.00;;
11006;SDS011;8186;57.652;11.968;2022-08-05T10:07:44;3.08;;;1.00;;
11006;SDS011;8186;57.652;11.968;2022-08-05T10:10:12;3.70;;;0.90;;
11006;SDS011;8186;57.652;11.968;2022-08-05T10:12:41;8.30;;;1.20;;
11006;SDS011;8186;57.652;11.968;2022-08-05T10:15:12;2.57;;;1.20;;
11006;SDS011;8186;57.652;11.968;2022-08-05T10:20:36;2.13;;;0.77;;
11006;SDS011;8186;57.652;11.968;2022-08-05T10:23:04;5.27;;;1.30;;
11006;SDS011;8186;57.652;11.968;2022-08-05T10:25:31;6.40;;;1.30;;
11006;SDS011;8186;57.652;11.968;2022-08-05T10:28:00;4.00;;;1.17;;
11006;SDS011;8186;57.652;11.968;2022-08-05T10:30:27;2.27;;;0.90;;
11006;SDS011;8186;57.652;11.968;2022-08-05T10:32:54;5.13;;;0.90;;
11006;SDS011;8186;57.652;11.968;2022-08-05T10:35:23;2.53;;;1.00;;
11006;SDS011;8186;57.652;11.968;2022-08-05T10:37:50;4.07;;;1.10;;
11006;SDS011;8186;57.652;11.968;2022-08-05T10:40:19;4.53;;;1.30;;
11006;SDS011;8186;57.652;11.968;2022-08-05T10:42:49;4.32;;;1.08;;
11006;SDS011;8186;57.652;11.968;2022-08-05T10:45:25;4.33;;;1.03;;
11006;SDS011;8186;57.652;11.968;2022-08-05T10:47:52;2.67;;;1.00;;
11006;SDS011;8186;57.652;11.968;2022-08-05T10:50:19;3.83;;;1.10;;
11006;SDS011;8186;57.652;11.968;2022-08-05T10:52:47;5.53;;;1.15;;
11006;SDS011;8186;57.652;11.968;2022-08-05T10:55:21;2.80;;;1.20;;
11006;SDS011;8186;57.652;11.968;2022-08-05T10:57:49;5.45;;;1.20;;
11006;SDS011;8186;57.652;11.968;2022-08-05T11:00:33;3.53;;;1.05;;
11006;SDS011;8186;57.652;11.968;2022-08-05T11:03:12;3.42;;;0.95;;
11006;SDS011;8186;57.652;11.968;2022-08-05T11:05:40;2.92;;;1.02;;
11006;SDS011;8186;57.652;11.968;2022-08-05T11:08:07;2.50;;;0.73;;
11006;SDS011;8186;57.652;11.968;2022-08-05T11:10:35;2.60;;;0.93;;
11006;SDS011;8186;57.652;11.968;2022-08-05T11:13:04;3.03;;;1.00;;
11006;SDS011;8186;57.652;11.968;2022-08-05T11:15:34;4.97;;;0.90;;
11006;SDS011;8186;57.652;11.968;2022-08-05T11:18:05;4.47;;;1.20;;
11006;SDS011;8186;57.652;11.968;2022-08-05T11:20:35;5.43;;;0.90;;
11006;SDS011;8186;57.652;11.968;2022-08-05T11:26:00;2.63;;;1.10;;
11006;SDS011;8186;57.652;11.968;2022-08-05T11:31:27;2.38;;;0.90;;
11006;SDS011;8186;57.652;11.968;2022-08-05T11:33:58;3.65;;;0.93;;
11006;SDS011;8186;57.652;11.968;2022-08-05T11:36:43;2.53;;;1.10;;
11006;SDS011;8186;57.652;11.968;2022-08-05T11:39:11;3.08;;;0.98;;
11006;SDS011;8186;57.652;11.968;2022-08-05T11:41:40;2.10;;;0.73;;
11006;SDS011;8186;57.652;11.968;2022-08-05T11:44:07;3.00;;;1.08;;
11006;SDS011;8186;57.652;11.968;2022-08-05T11:46:39;2.85;;;0.80;;
11006;SDS011;8186;57.652;11.968;2022-08-05T11:49:09;4.30;;;0.90;;
11006;SDS011;8186;57.652;11.968;2022-08-05T11:51:39;1.33;;;0.75;;
11006;SDS011;8186;57.652;11.968;2022-08-05T11:54:06;2.28;;;0.95;;
11006;SDS011;8186;57.652;11.968;2022-08-05T11:56:43;3.28;;;1.05;;
11006;SDS011;8186;57.652;11.968;2022-08-05T11:59:11;2.47;;;0.98;;
11006;SDS011;8186;57.652;11.968;2022-08-05T12:01:50;2.28;;;0.65;;
11006;SDS011;8186;57.652;11.968;2022-08-05T12:04:18;2.42;;;0.70;;
11006;SDS011;8186;57.652;11.968;2022-08-05T12:06:45;1.70;;;0.70;;
11006;SDS011;8186;57.652;11.968;2022-08-05T12:09:11;1.27;;;0.65;;
11006;SDS011;8186;57.652;11.968;2022-08-05T12:11:42;2.47;;;0.80;;
11006;SDS011;8186;57.652;11.968;2022-08-05T12:14:09;4.03;;;0.95;;
11006;SDS011;8186;57.652;11.968;2022-08-05T12:16:37;5.22;;;0.95;;
11006;SDS011;8186;57.652;11.968;2022-08-05T12:19:06;2.78;;;0.80;;
11006;SDS011;8186;57.652;11.968;2022-08-05T12:21:35;2.28;;;0.90;;
11006;SDS011;8186;57.652;11.968;2022-08-05T12:24:09;5.05;;;0.70;;
11006;SDS011;8186;57.652;11.968;2022-08-05T12:26:38;1.65;;;0.70;;
11006;SDS011;8186;57.652;11.968;2022-08-05T12:29:07;1.58;;;0.93;;
11006;SDS011;8186;57.652;11.968;2022-08-05T12:31:35;2.63;;;0.90;;
11006;SDS011;8186;57.652;11.968;2022-08-05T12:34:03;1.25;;;0.70;;
11006;SDS011;8186;57.652;11.968;2022-08-05T12:36:33;2.28;;;0.60;;
11006;SDS011;8186;57.652;11.968;2022-08-05T12:39:01;2.40;;;0.70;;
11006;SDS011;8186;57.652;11.968;2022-08-05T12:41:29;2.15;;;0.60;;
11006;SDS011;8186;57.652;11.968;2022-08-05T12:43:57;2.53;;;1.10;;
11006;SDS011;8186;57.652;11.968;2022-08-05T12:46:25;1.65;;;0.70;;
11006;SDS011;8186;57.652;11.968;2022-08-05T12:48:57;2.13;;;0.80;;
11006;SDS011;8186;57.652;11.968;2022-08-05T12:51:26;1.92;;;0.80;;
11006;SDS011;8186;57.652;11.968;2022-08-05T12:53:59;3.10;;;0.80;;
11006;SDS011;8186;57.652;11.968;2022-08-05T12:56:28;3.80;;;1.00;;
11006;SDS011;8186;57.652;11.968;2022-08-05T12:59:14;2.50;;;0.88;;
11006;SDS011;8186;57.652;11.968;2022-08-05T13:01:42;2.35;;;0.93;;
11006;SDS011;8186;57.652;11.968;2022-08-05T13:04:11;3.55;;;0.90;;
11006;SDS011;8186;57.652;11.968;2022-08-05T13:06:40;3.05;;;0.93;;
11006;SDS011;8186;57.652;11.968;2022-08-05T13:09:09;2.25;;;0.60;;
11006;SDS011;8186;57.652;11.968;2022-08-05T13:11:38;2.00;;;0.80;;
11006;SDS011;8186;57.652;11.968;2022-08-05T13:14:10;1.85;;;0.77;;
11006;SDS011;8186;57.652;11.968;2022-08-05T13:16:51;4.95;;;1.10;;
11006;SDS011;8186;57.652;11.968;2022-08-05T13:19:20;2.20;;;0.82;;
11006;SDS011;8186;57.652;11.968;2022-08-05T13:21:49;2.08;;;0.80;;
11006;SDS011;8186;57.652;11.968;2022-08-05T13:24:16;2.78;;;0.75;;
11006;SDS011;8186;57.652;11.968;2022-08-05T13:26:44;1.83;;;0.90;;
11006;SDS011;8186;57.652;11.968;2022-08-05T13:29:11;1.65;;;0.70;;
11006;SDS011;8186;57.652;11.968;2022-08-05T13:31:39;1.10;;;0.60;;
11006;SDS011;8186;57.652;11.968;2022-08-05T13:34:06;2.97;;;0.73;;
11006;SDS011;8186;57.652;11.968;2022-08-05T13:36:33;2.67;;;0.90;;
11006;SDS011;8186;57.652;11.968;2022-08-05T13:39:03;0.80;;;0.73;;
11006;SDS011;8186;57.652;11.968;2022-08-05T13:41:31;2.85;;;0.90;;
11006;SDS011;8186;57.652;11.968;2022-08-05T13:43:58;1.42;;;0.70;;
11006;SDS011;8186;57.652;11.968;2022-08-05T13:46:25;2.05;;;1.13;;
11006;SDS011;8186;57.652;11.968;2022-08-05T13:48:52;2.53;;;1.00;;
11006;SDS011;8186;57.652;11.968;2022-08-05T13:51:24;3.55;;;0.98;;
11006;SDS011;8186;57.652;11.968;2022-08-05T13:53:53;2.72;;;0.80;;
11006;SDS011;8186;57.652;11.968;2022-08-05T13:56:22;2.55;;;0.80;;
11006;SDS011;8186;57.652;11.968;2022-08-05T13:58:49;1.63;;;0.93;;
11006;SDS011;8186;57.652;11.968;2022-08-05T14:01:15;2.38;;;0.95;;
11006;SDS011;8186;57.652;11.968;2022-08-05T14:03:42;4.75;;;0.93;;
11006;SDS011;8186;57.652;11.968;2022-08-05T14:06:09;2.03;;;0.82;;
11006;SDS011;8186;57.652;11.968;2022-08-05T14:08:35;1.50;;;0.90;;
11006;SDS011;8186;57.652;11.968;2022-08-05T14:11:02;2.50;;;1.30;;
11006;SDS011;8186;57.652;11.968;2022-08-05T14:13:30;1.85;;;0.90;;
11006;SDS011;8186;57.652;11.968;2022-08-05T14:15:57;1.88;;;0.93;;
11006;SDS011;8186;57.652;11.968;2022-08-05T14:18:23;3.40;;;0.88;;
11006;SDS011;8186;57.652;11.968;2022-08-05T14:20:50;3.88;;;1.10;;
11006;SDS011;8186;57.652;11.968;2022-08-05T14:23:17;2.40;;;1.05;;
11006;SDS011;8186;57.652;11.968;2022-08-05T14:25:44;3.30;;;1.08;;
11006;SDS011;8186;57.652;11.968;2022-08-05T14:28:11;5.18;;;0.93;;
11006;SDS011;8186;57.652;11.968;2022-08-05T14:30:39;3.40;;;1.13;;
11006;SDS011;8186;57.652;11.968;2022-08-05T14:33:06;2.85;;;1.17;;
11006;SDS011;8186;57.652;11.968;2022-08-05T14:35:34;2.80;;;1.08;;
11006;SDS011;8186;57.652;11.968;2022-08-05T14:38:00;3.95;;;0.90;;
11006;SDS011;8186;57.652;11.968;2022-08-05T14:40:27;3.63;;;1.15;;
11006;SDS011;8186;57.652;11.968;2022-08-05T14:42:54;2.38;;;1.02;;
11006;SDS011;8186;57.652;11.968;2022-08-05T14:45:21;5.72;;;1.08;;
11006;SDS011;8186;57.652;11.968;2022-08-05T14:47:49;2.33;;;0.85;;
11006;SDS011;8186;57.652;11.968;2022-08-05T14:50:16;3.22;;;1.00;;
11006;SDS011;8186;57.652;11.968;2022-08-05T14:52:43;3.53;;;1.02;;
11006;SDS011;8186;57.652;11.968;2022-08-05T14:55:10;5.35;;;1.30;;
11006;SDS011;8186;57.652;11.968;2022-08-05T14:57:37;3.92;;;1.05;;
11006;SDS011;8186;57.652;11.968;2022-08-05T15:00:04;3.13;;;1.00;;
11006;SDS011;8186;57.652;11.968;2022-08-05T15:02:32;4.07;;;1.00;;
11006;SDS011;8186;57.652;11.968;2022-08-05T15:05:00;5.38;;;1.38;;
11006;SDS011;8186;57.652;11.968;2022-08-05T15:07:27;3.65;;;1.23;;